createdAt,value
2017-12-24T00:00:22.058Z,34.47
2017-12-24T00:02:49.524Z,36.20
2017-12-24T00:05:16.990Z,30.77
2017-12-24T00:07:44.463Z,39.87
2017-12-24T00:10:11.934Z,29.97
2017-12-24T00:12:39.406Z,26.20
2017-12-24T00:15:07.630Z,32.47
2017-12-24T00:17:37.002Z,32.30
2017-12-24T00:20:04.453Z,37.20
2017-12-24T00:22:31.936Z,37.70
2017-12-24T00:24:59.400Z,33.90
2017-12-24T00:27:26.853Z,40.47
2017-12-24T00:29:54.308Z,34.30
2017-12-24T00:32:21.765Z,37.77
2017-12-24T00:34:49.230Z,38.50
2017-12-24T00:37:16.677Z,42.53
2017-12-24T00:39:44.132Z,36.27
2017-12-24T00:42:11.590Z,43.37
2017-12-24T00:44:39.085Z,38.07
2017-12-24T00:47:07.292Z,34.50
2017-12-24T00:49:34.747Z,36.63
2017-12-24T00:52:02.957Z,34.97
2017-12-24T00:54:30.422Z,31.93
2017-12-24T00:56:57.876Z,34.40
2017-12-24T00:59:25.328Z,32.87
2017-12-24T01:01:52.788Z,36.87
2017-12-24T01:04:20.250Z,38.83
2017-12-24T01:06:47.706Z,35.23
2017-12-24T01:09:15.209Z,33.57
2017-12-24T01:11:42.613Z,31.40
2017-12-24T01:14:10.093Z,34.60
2017-12-24T01:16:37.553Z,35.67
2017-12-24T01:19:05.009Z,32.83
2017-12-24T01:21:32.466Z,33.37
2017-12-24T01:23:59.918Z,32.50
2017-12-24T01:26:27.377Z,32.73
2017-12-24T01:28:54.828Z,31.87
2017-12-24T01:31:22.294Z,32.17
2017-12-24T01:33:49.783Z,34.70
2017-12-24T01:36:18.758Z,34.60
2017-12-24T01:38:46.313Z,36.87
2017-12-24T01:41:13.781Z,34.97
2017-12-24T01:43:41.233Z,37.80
2017-12-24T01:46:08.689Z,39.47
2017-12-24T01:48:36.136Z,39.70
2017-12-24T01:51:03.589Z,42.50
2017-12-24T01:53:31.047Z,40.43
2017-12-24T01:55:58.510Z,39.77
2017-12-24T01:58:25.957Z,37.40
2017-12-24T02:00:53.416Z,41.47
2017-12-24T02:03:20.873Z,46.03
2017-12-24T02:05:48.355Z,39.53
2017-12-24T02:08:15.820Z,41.00
2017-12-24T02:10:43.265Z,40.83
2017-12-24T02:15:45.317Z,42.17
2017-12-24T02:20:45.639Z,34.50
2017-12-24T02:23:13.103Z,29.67
2017-12-24T02:25:40.553Z,33.00
2017-12-24T02:28:08.005Z,27.07
2017-12-24T02:30:35.459Z,30.27
2017-12-24T02:33:02.930Z,43.83
2017-12-24T02:35:30.369Z,29.50
2017-12-24T02:37:58.602Z,27.27
2017-12-24T02:40:26.054Z,23.90
2017-12-24T02:42:53.523Z,24.80
2017-12-24T02:45:20.980Z,29.23
2017-12-24T02:47:48.441Z,24.67
2017-12-24T02:50:15.897Z,23.63
2017-12-24T02:52:43.353Z,22.30
2017-12-24T02:55:10.860Z,23.57
2017-12-24T02:57:38.325Z,21.17
2017-12-24T03:00:05.785Z,28.03
2017-12-24T03:02:33.249Z,20.10
2017-12-24T03:05:00.711Z,24.00
2017-12-24T03:07:28.177Z,23.13
2017-12-24T03:09:55.639Z,22.47
2017-12-24T03:12:23.138Z,23.73
2017-12-24T03:14:51.358Z,19.93
2017-12-24T03:17:18.813Z,20.23
2017-12-24T03:19:46.286Z,16.50
2017-12-24T03:22:13.741Z,16.73
2017-12-24T03:24:41.219Z,17.60
2017-12-24T03:27:10.190Z,19.30
2017-12-24T03:29:37.656Z,15.33
2017-12-24T03:32:05.109Z,16.10
2017-12-24T03:34:32.573Z,16.57
2017-12-24T03:37:00.027Z,14.53
2017-12-24T03:39:27.482Z,20.07
2017-12-24T03:41:54.933Z,18.43
2017-12-24T03:44:22.397Z,24.43
2017-12-24T03:46:49.850Z,18.40
2017-12-24T03:49:17.305Z,18.90
2017-12-24T03:51:44.755Z,17.60
2017-12-24T03:54:12.226Z,20.27
2017-12-24T03:56:39.681Z,15.50
2017-12-24T03:59:07.148Z,15.43
2017-12-24T04:01:35.365Z,16.60
2017-12-24T04:04:03.610Z,16.90
2017-12-24T04:06:31.066Z,16.67
2017-12-24T04:08:58.533Z,13.63
2017-12-24T04:11:25.978Z,16.33
2017-12-24T04:13:53.445Z,17.17
2017-12-24T04:16:20.893Z,15.17
2017-12-24T04:18:48.349Z,13.83
2017-12-24T04:21:15.809Z,14.10
2017-12-24T04:23:43.264Z,16.47
2017-12-24T04:26:10.722Z,15.33
2017-12-24T04:28:38.177Z,13.80
2017-12-24T04:31:05.637Z,12.50
2017-12-24T04:33:33.093Z,13.43
2017-12-24T04:36:00.593Z,12.10
2017-12-24T04:38:28.810Z,12.20
2017-12-24T04:40:56.271Z,13.67
2017-12-24T04:43:23.721Z,14.07
2017-12-24T04:45:51.184Z,10.63
2017-12-24T04:48:18.638Z,14.00
2017-12-24T04:50:46.110Z,13.63
2017-12-24T04:53:13.566Z,12.10
2017-12-24T04:55:41.017Z,13.00
2017-12-24T04:58:08.473Z,12.73
2017-12-24T05:00:35.925Z,11.30
2017-12-24T05:03:03.379Z,15.87
2017-12-24T05:05:30.854Z,12.97
2017-12-24T05:07:58.305Z,14.03
2017-12-24T05:10:25.762Z,11.97
2017-12-24T05:12:53.209Z,13.23
2017-12-24T05:15:20.673Z,10.83
2017-12-24T05:17:48.131Z,11.90
2017-12-24T05:20:15.589Z,14.30
2017-12-24T05:22:43.042Z,10.13
2017-12-24T05:25:10.497Z,12.73
2017-12-24T05:27:37.965Z,9.57
2017-12-24T05:30:05.418Z,11.67
2017-12-24T05:32:32.869Z,11.87
2017-12-24T05:35:00.338Z,14.53
2017-12-24T05:37:27.799Z,12.73
2017-12-24T05:39:55.274Z,12.17
2017-12-24T05:42:22.726Z,9.90
2017-12-24T05:44:50.174Z,10.07
2017-12-24T05:47:17.640Z,12.13
2017-12-24T05:49:45.089Z,12.00
2017-12-24T05:52:12.555Z,12.67
2017-12-24T05:54:40.010Z,11.03
2017-12-24T05:57:07.462Z,10.93
2017-12-24T05:59:34.917Z,11.27
2017-12-24T06:02:02.386Z,13.87
2017-12-24T06:04:29.832Z,11.63
2017-12-24T06:06:57.482Z,11.37
2017-12-24T06:09:24.962Z,10.60
2017-12-24T06:11:52.409Z,7.90
2017-12-24T06:14:19.870Z,10.17
2017-12-24T06:16:48.829Z,7.37
2017-12-24T06:19:16.282Z,8.40
2017-12-24T06:21:43.749Z,11.17
2017-12-24T06:24:11.234Z,10.07
2017-12-24T06:26:38.689Z,9.87
2017-12-24T06:29:06.909Z,10.80
2017-12-24T06:31:34.357Z,9.27
2017-12-24T06:34:02.582Z,9.90
2017-12-24T06:36:30.033Z,9.83
2017-12-24T06:38:57.494Z,11.60
2017-12-24T06:41:24.951Z,8.23
2017-12-24T06:43:52.401Z,7.97
2017-12-24T06:46:19.857Z,10.60
2017-12-24T06:48:47.322Z,9.80
2017-12-24T06:51:14.778Z,10.60
2017-12-24T06:53:42.246Z,9.10
2017-12-24T06:56:10.458Z,9.20
2017-12-24T06:58:38.693Z,10.63
2017-12-24T07:01:06.146Z,9.23
2017-12-24T07:03:33.601Z,6.60
2017-12-24T07:06:01.070Z,11.00
2017-12-24T07:08:28.522Z,9.90
2017-12-24T07:10:55.974Z,8.67
2017-12-24T07:13:29.076Z,8.10
2017-12-24T07:15:56.546Z,10.67
2017-12-24T07:18:23.986Z,7.30
2017-12-24T07:20:51.450Z,8.03
2017-12-24T07:23:18.921Z,10.50
2017-12-24T07:25:47.149Z,10.50
2017-12-24T07:28:14.610Z,9.40
2017-12-24T07:30:42.065Z,7.13
2017-12-24T07:33:09.521Z,7.37
2017-12-24T07:35:36.981Z,10.27
2017-12-24T07:38:04.438Z,7.37
2017-12-24T07:40:31.894Z,8.30
2017-12-24T07:42:59.351Z,9.13
2017-12-24T07:45:26.833Z,8.50
2017-12-24T07:47:54.290Z,10.83
2017-12-24T07:50:21.742Z,6.47
2017-12-24T07:52:49.197Z,6.80
2017-12-24T07:55:16.670Z,7.10
2017-12-24T07:57:44.129Z,8.97
2017-12-24T08:00:11.609Z,6.53
2017-12-24T08:02:39.824Z,8.27
2017-12-24T08:05:07.291Z,8.17
2017-12-24T08:07:34.746Z,7.93
2017-12-24T08:10:02.209Z,7.20
2017-12-24T08:12:29.657Z,7.40
2017-12-24T08:14:57.125Z,8.53
2017-12-24T08:17:24.570Z,7.73
2017-12-24T08:19:52.026Z,8.50
2017-12-24T08:22:19.485Z,9.40
2017-12-24T08:24:46.950Z,5.43
2017-12-24T08:27:14.405Z,6.30
2017-12-24T08:29:41.864Z,7.67
2017-12-24T08:32:09.314Z,7.17
2017-12-24T08:34:36.773Z,7.40
2017-12-24T08:37:04.230Z,8.60
2017-12-24T08:39:31.687Z,7.30
2017-12-24T08:41:59.149Z,8.70
2017-12-24T08:44:26.601Z,8.13
2017-12-24T08:46:54.061Z,7.80
2017-12-24T08:49:21.518Z,7.80
2017-12-24T08:51:48.987Z,7.10
2017-12-24T08:54:16.441Z,7.63
2017-12-24T08:56:43.893Z,7.33
2017-12-24T08:59:11.341Z,7.43
2017-12-24T09:01:38.799Z,9.43
2017-12-24T09:04:06.255Z,7.80
2017-12-24T09:06:33.726Z,5.17
2017-12-24T09:09:01.176Z,8.30
2017-12-24T09:11:28.633Z,9.30
2017-12-24T09:13:56.088Z,6.40
2017-12-24T09:16:23.539Z,7.70
2017-12-24T09:18:51.004Z,6.10
2017-12-24T09:21:18.458Z,7.60
2017-12-24T09:23:45.917Z,7.50
2017-12-24T09:26:13.385Z,6.70
2017-12-24T09:28:40.836Z,6.70
2017-12-24T09:31:08.285Z,6.83
2017-12-24T09:33:35.738Z,5.50
2017-12-24T09:36:03.215Z,10.70
2017-12-24T09:38:30.661Z,9.50
2017-12-24T09:40:58.122Z,7.17
2017-12-24T09:43:25.569Z,9.80
2017-12-24T09:45:53.175Z,6.70
2017-12-24T09:48:20.621Z,10.80
2017-12-24T09:50:48.073Z,7.33
2017-12-24T09:53:16.298Z,7.97
2017-12-24T09:55:44.519Z,8.13
2017-12-24T09:58:11.986Z,7.03
2017-12-24T10:00:39.442Z,9.83
2017-12-24T10:03:06.902Z,7.13
2017-12-24T10:05:34.362Z,8.90
2017-12-24T10:08:01.810Z,10.57
2017-12-24T10:10:29.262Z,9.10
2017-12-24T10:12:56.725Z,7.07
2017-12-24T10:15:24.194Z,7.30
2017-12-24T10:17:51.646Z,7.77
2017-12-24T10:20:19.101Z,9.83
2017-12-24T10:22:46.569Z,7.70
2017-12-24T10:25:14.026Z,8.50
2017-12-24T10:27:41.498Z,7.07
2017-12-24T10:30:09.746Z,6.33
2017-12-24T10:32:37.199Z,5.80
2017-12-24T10:35:04.684Z,6.23
2017-12-24T10:37:32.137Z,5.73
2017-12-24T10:39:59.591Z,6.30
2017-12-24T10:42:27.050Z,7.10
2017-12-24T10:44:54.534Z,6.97
2017-12-24T10:47:22.757Z,6.30
2017-12-24T10:49:50.211Z,6.63
2017-12-24T10:52:17.677Z,6.10
2017-12-24T10:54:45.153Z,5.70
2017-12-24T10:57:12.651Z,7.80
2017-12-24T10:59:40.093Z,5.87
2017-12-24T11:02:07.605Z,6.53
2017-12-24T11:04:35.051Z,6.60
2017-12-24T11:07:02.514Z,5.60
2017-12-24T11:09:29.995Z,5.20
2017-12-24T11:11:57.447Z,5.53
2017-12-24T11:14:25.674Z,4.80
2017-12-24T11:16:53.126Z,5.13
2017-12-24T11:19:20.585Z,5.03
2017-12-24T11:21:48.030Z,5.97
2017-12-24T11:24:16.249Z,5.53
2017-12-24T11:26:43.705Z,4.70
2017-12-24T11:29:11.170Z,5.23
2017-12-24T11:31:38.630Z,4.80
2017-12-24T11:34:06.086Z,7.30
2017-12-24T11:36:33.576Z,5.57
2017-12-24T11:39:01.100Z,4.90
2017-12-24T11:41:28.624Z,5.53
2017-12-24T11:43:56.079Z,5.20
2017-12-24T11:46:23.523Z,6.07
2017-12-24T11:48:50.983Z,4.53
2017-12-24T11:51:19.198Z,4.53
2017-12-24T11:53:46.694Z,8.70
2017-12-24T11:56:14.140Z,4.13
2017-12-24T11:58:41.577Z,5.00
2017-12-24T12:01:09.035Z,4.60
2017-12-24T12:03:36.482Z,3.80
2017-12-24T12:06:03.939Z,3.77
2017-12-24T12:08:31.386Z,4.93
2017-12-24T12:10:58.850Z,4.63
2017-12-24T12:13:26.301Z,4.77
2017-12-24T12:15:53.767Z,4.40
2017-12-24T12:18:21.222Z,3.60
2017-12-24T12:20:48.689Z,4.57
2017-12-24T12:23:16.150Z,4.00
2017-12-24T12:25:43.607Z,4.00
2017-12-24T12:28:11.058Z,8.60
2017-12-24T12:30:38.519Z,4.20
2017-12-24T12:33:05.982Z,3.73
2017-12-24T12:35:33.438Z,4.03
2017-12-24T12:38:00.899Z,5.73
2017-12-24T12:40:28.354Z,5.00
2017-12-24T12:42:55.805Z,6.00
2017-12-24T12:45:23.257Z,4.17
2017-12-24T12:47:50.704Z,6.50
2017-12-24T12:50:18.162Z,6.20
2017-12-24T12:52:45.712Z,5.00
2017-12-24T12:55:13.173Z,5.10
2017-12-24T12:57:40.632Z,6.20
2017-12-24T13:00:08.099Z,5.00
2017-12-24T13:02:35.553Z,7.60
2017-12-24T13:05:03.017Z,8.33
2017-12-24T13:07:30.473Z,7.40
2017-12-24T13:09:57.924Z,7.40
2017-12-24T13:12:25.392Z,6.10
2017-12-24T13:14:52.841Z,6.90
2017-12-24T13:17:20.331Z,6.90
2017-12-24T13:19:47.769Z,6.70
2017-12-24T13:22:15.237Z,6.93
2017-12-24T13:24:42.725Z,7.43
2017-12-24T13:27:10.178Z,11.53
2017-12-24T13:29:38.423Z,22.63
2017-12-24T13:32:06.642Z,14.60
2017-12-24T13:34:34.090Z,10.50
2017-12-24T13:37:02.337Z,9.70
2017-12-24T13:39:29.794Z,6.53
2017-12-24T13:41:57.267Z,12.60
2017-12-24T13:44:25.506Z,7.53
2017-12-24T13:46:52.963Z,11.70
2017-12-24T13:49:20.491Z,11.63
2017-12-24T13:51:48.718Z,9.23
2017-12-24T13:54:16.174Z,11.70
2017-12-24T13:56:44.393Z,10.30
2017-12-24T13:59:12.624Z,11.60
2017-12-24T14:01:40.831Z,13.50
2017-12-24T14:04:09.061Z,11.63
2017-12-24T14:06:36.506Z,13.47
2017-12-24T14:09:03.966Z,10.50
2017-12-24T14:11:31.418Z,9.77
2017-12-24T14:13:58.893Z,11.50
2017-12-24T14:16:26.350Z,14.53
2017-12-24T14:18:53.810Z,17.67
2017-12-24T14:21:21.262Z,15.83
2017-12-24T14:23:48.730Z,11.43
2017-12-24T14:26:16.178Z,10.73
2017-12-24T14:28:43.656Z,12.70
2017-12-24T14:31:11.114Z,12.27
2017-12-24T14:33:38.569Z,14.67
2017-12-24T14:36:06.044Z,17.90
2017-12-24T14:38:34.273Z,14.13
2017-12-24T14:41:01.727Z,11.00
2017-12-24T14:43:29.198Z,14.50
2017-12-24T14:45:56.691Z,13.70
2017-12-24T14:48:24.114Z,11.30
2017-12-24T14:50:52.342Z,14.30
2017-12-24T14:53:19.798Z,12.63
2017-12-24T14:55:47.257Z,14.53
2017-12-24T14:58:14.707Z,10.73
2017-12-24T15:00:42.959Z,13.13
2017-12-24T15:03:10.410Z,7.80
2017-12-24T15:05:37.874Z,10.57
2017-12-24T15:08:05.330Z,10.60
2017-12-24T15:10:32.793Z,8.37
2017-12-24T15:13:01.751Z,8.17
2017-12-24T15:15:32.125Z,8.90
2017-12-24T15:18:00.339Z,11.93
2017-12-24T15:20:27.816Z,16.10
2017-12-24T15:22:56.042Z,15.83
2017-12-24T15:25:24.261Z,13.07
2017-12-24T15:27:51.710Z,15.53
2017-12-24T15:30:19.169Z,16.77
2017-12-24T15:32:46.642Z,20.97
2017-12-24T15:35:14.094Z,16.77
2017-12-24T15:37:41.557Z,20.43
2017-12-24T15:40:09.053Z,19.50
2017-12-24T15:42:37.278Z,20.23
2017-12-24T15:45:04.750Z,14.87
2017-12-24T15:47:32.969Z,18.17
2017-12-24T15:50:01.185Z,19.13
2017-12-24T15:52:28.654Z,22.37
2017-12-24T15:54:56.105Z,25.87
2017-12-24T15:57:23.593Z,20.70
2017-12-24T15:59:51.034Z,21.10
2017-12-24T16:02:18.497Z,26.80
2017-12-24T16:04:47.456Z,23.70
2017-12-24T16:07:14.913Z,26.90
2017-12-24T16:09:42.371Z,26.50
2017-12-24T16:12:09.829Z,28.20
2017-12-24T16:14:37.290Z,26.37
2017-12-24T16:17:04.765Z,34.00
2017-12-24T16:19:32.213Z,24.00
2017-12-24T16:21:59.669Z,31.67
2017-12-24T16:24:27.145Z,34.17
2017-12-24T16:26:54.608Z,31.73
2017-12-24T16:29:22.065Z,30.00
2017-12-24T16:31:49.530Z,34.10
2017-12-24T16:34:16.988Z,33.30
2017-12-24T16:36:44.454Z,29.90
2017-12-24T16:39:11.909Z,30.20
2017-12-24T16:41:39.365Z,33.63
2017-12-24T16:44:06.817Z,29.80
2017-12-24T16:46:34.270Z,29.47
2017-12-24T16:49:01.730Z,30.97
2017-12-24T16:51:29.214Z,34.53
2017-12-24T16:53:57.442Z,28.47
2017-12-24T16:56:24.941Z,30.43
2017-12-24T16:58:52.382Z,26.47
2017-12-24T17:01:19.854Z,29.33
2017-12-24T17:03:48.093Z,32.20
2017-12-24T17:06:15.540Z,30.03
2017-12-24T17:08:43.006Z,32.40
2017-12-24T17:11:10.467Z,31.93
2017-12-24T17:13:37.945Z,27.07
2017-12-24T17:16:06.222Z,30.97
2017-12-24T17:18:33.737Z,26.33
2017-12-24T17:21:01.138Z,29.00
2017-12-24T17:23:28.662Z,30.13
2017-12-24T17:25:56.117Z,32.13
2017-12-24T17:28:23.589Z,34.93
2017-12-24T17:30:51.062Z,28.03
2017-12-24T17:33:19.322Z,28.17
2017-12-24T17:35:46.782Z,26.80
2017-12-24T17:38:15.011Z,25.33
2017-12-24T17:40:42.470Z,26.70
2017-12-24T17:43:09.929Z,26.90
2017-12-24T17:45:37.381Z,34.70
2017-12-24T17:48:04.839Z,29.10
2017-12-24T17:50:32.295Z,25.80
2017-12-24T17:52:59.749Z,35.30
2017-12-24T17:55:27.210Z,29.93
2017-12-24T17:57:55.434Z,36.67
2017-12-24T18:00:23.658Z,27.87
2017-12-24T18:02:51.118Z,32.33
2017-12-24T18:05:18.595Z,29.50
2017-12-24T18:07:46.048Z,29.33
2017-12-24T18:10:13.522Z,29.40
2017-12-24T18:12:40.974Z,30.80
2017-12-24T18:15:08.430Z,27.80
2017-12-24T18:17:35.887Z,28.07
2017-12-24T18:20:03.346Z,25.67
2017-12-24T18:22:30.801Z,26.27
2017-12-24T18:24:58.286Z,28.43
2017-12-24T18:27:25.752Z,29.40
2017-12-24T18:29:53.242Z,30.57
2017-12-24T18:32:21.454Z,28.43
2017-12-24T18:34:48.946Z,24.97
2017-12-24T18:37:16.397Z,28.33
2017-12-24T18:39:43.861Z,27.37
2017-12-24T18:42:11.393Z,23.63
2017-12-24T18:44:38.801Z,25.00
2017-12-24T18:47:06.254Z,27.23
2017-12-24T18:49:34.482Z,23.63
2017-12-24T18:52:01.937Z,22.57
2017-12-24T18:54:29.424Z,21.73
2017-12-24T18:56:56.882Z,27.33
2017-12-24T18:59:24.346Z,28.23
2017-12-24T19:01:51.803Z,28.30
2017-12-24T19:04:19.278Z,23.70
2017-12-24T19:06:47.497Z,19.60
2017-12-24T19:09:14.958Z,24.33
2017-12-24T19:11:42.423Z,23.97
2017-12-24T19:14:09.921Z,25.60
2017-12-24T19:16:38.185Z,28.83
2017-12-24T19:19:05.626Z,24.90
2017-12-24T19:21:33.088Z,26.03
2017-12-24T19:24:01.306Z,29.03
2017-12-24T19:26:28.785Z,26.83
2017-12-24T19:28:56.246Z,23.73
2017-12-24T19:31:23.702Z,25.00
2017-12-24T19:33:51.157Z,22.43
2017-12-24T19:36:18.637Z,24.87
2017-12-24T19:38:46.107Z,33.90
2017-12-24T19:41:13.566Z,25.33
2017-12-24T19:43:41.045Z,27.33
2017-12-24T19:46:08.549Z,24.77
2017-12-24T19:48:36.011Z,25.13
2017-12-24T19:51:03.458Z,25.30
2017-12-24T19:53:30.929Z,22.10
2017-12-24T19:55:58.390Z,30.80
2017-12-24T19:58:25.850Z,26.67
2017-12-24T20:00:53.304Z,21.97
2017-12-24T20:03:20.794Z,27.10
2017-12-24T20:05:48.247Z,24.10
2017-12-24T20:08:15.706Z,29.20
2017-12-24T20:10:43.158Z,27.60
2017-12-24T20:13:10.621Z,27.23
2017-12-24T20:15:38.078Z,25.93
2017-12-24T20:18:05.534Z,22.73
2017-12-24T20:20:33.006Z,21.83
2017-12-24T20:23:00.457Z,23.83
2017-12-24T20:25:27.918Z,21.57
2017-12-24T20:27:55.358Z,22.10
2017-12-24T20:30:22.817Z,19.43
2017-12-24T20:32:50.269Z,19.63
2017-12-24T20:35:18.733Z,22.70
2017-12-24T20:37:46.186Z,19.80
2017-12-24T20:40:13.658Z,22.10
2017-12-24T20:42:41.110Z,19.83
2017-12-24T20:45:08.565Z,16.60
2017-12-24T20:47:36.025Z,18.37
2017-12-24T20:50:03.485Z,16.00
2017-12-24T20:52:30.941Z,16.83
2017-12-24T20:54:58.398Z,17.20
2017-12-24T20:57:25.857Z,11.23
2017-12-24T20:59:53.322Z,16.33
2017-12-24T21:02:20.770Z,11.77
2017-12-24T21:04:48.240Z,11.20
2017-12-24T21:07:15.690Z,11.50
2017-12-24T21:09:43.946Z,11.10
2017-12-24T21:12:11.410Z,10.07
2017-12-24T21:14:38.869Z,13.17
2017-12-24T21:17:06.356Z,8.87
2017-12-24T21:19:33.821Z,11.20
2017-12-24T21:22:02.047Z,10.60
2017-12-24T21:24:29.506Z,8.83
2017-12-24T21:26:56.960Z,9.43
2017-12-24T21:29:24.445Z,8.80
2017-12-24T21:31:51.898Z,8.83
2017-12-24T21:34:19.354Z,10.13
2017-12-24T21:36:46.804Z,9.60
2017-12-24T21:39:14.258Z,10.00
2017-12-24T21:41:41.722Z,8.50
2017-12-24T21:44:09.177Z,9.80
2017-12-24T21:46:36.633Z,7.50
2017-12-24T21:49:04.085Z,10.43
2017-12-24T21:51:31.537Z,7.33
2017-12-24T21:53:59.001Z,7.63
2017-12-24T21:56:26.466Z,8.30
2017-12-24T21:58:54.693Z,9.83
2017-12-24T22:01:22.154Z,8.30
2017-12-24T22:03:49.602Z,7.43
2017-12-24T22:06:17.816Z,8.20
2017-12-24T22:08:45.293Z,12.57
2017-12-24T22:11:12.758Z,8.53
2017-12-24T22:13:40.222Z,9.00
2017-12-24T22:16:07.666Z,8.20
2017-12-24T22:18:35.150Z,8.90
2017-12-24T22:21:02.639Z,8.33
2017-12-24T22:23:30.053Z,9.50
2017-12-24T22:25:57.519Z,9.20
2017-12-24T22:28:24.989Z,7.10
2017-12-24T22:30:53.209Z,11.10
2017-12-24T22:33:20.661Z,7.77
2017-12-24T22:35:48.105Z,7.37
2017-12-24T22:38:15.558Z,8.00
2017-12-24T22:40:43.005Z,7.03
2017-12-24T22:43:11.229Z,9.90
2017-12-24T22:45:38.698Z,7.30
2017-12-24T22:48:06.145Z,8.20
2017-12-24T22:50:33.604Z,8.90
2017-12-24T22:53:01.054Z,6.43
2017-12-24T22:55:28.513Z,7.20
2017-12-24T22:57:56.005Z,8.63
2017-12-24T23:00:23.465Z,7.80
2017-12-24T23:02:50.909Z,8.10
2017-12-24T23:05:18.365Z,8.60
2017-12-24T23:07:45.817Z,8.93
2017-12-24T23:10:14.033Z,10.30
2017-12-24T23:12:41.478Z,7.50
2017-12-24T23:15:09.693Z,9.33
2017-12-24T23:17:37.162Z,8.03
2017-12-24T23:20:04.625Z,8.37
2017-12-24T23:22:32.081Z,8.60
2017-12-24T23:24:59.542Z,11.60
2017-12-24T23:27:26.994Z,14.07
2017-12-24T23:29:54.453Z,8.83
2017-12-24T23:32:22.678Z,11.40
2017-12-24T23:34:50.134Z,8.77
2017-12-24T23:37:18.345Z,8.50
2017-12-24T23:39:45.826Z,11.10
2017-12-24T23:42:13.278Z,8.87
2017-12-24T23:44:40.733Z,10.83
2017-12-24T23:47:08.200Z,14.30
2017-12-24T23:49:35.677Z,13.30
2017-12-24T23:52:03.137Z,11.70
2017-12-24T23:54:30.585Z,10.60
2017-12-24T23:56:58.048Z,12.50
2017-12-24T23:59:25.497Z,10.60
